Tropical Cyclones
[Index]
Main Index Home Page Stock Weather Photos Extreme Storms Discussion Storm News and Storm Chasing Reports Tropical Cyclones / Hurricanes / Typhoons Weather Data and Links Wild Fires / Bushfires Weather Observation Techniques Weather Picture Catalogue Tornado Pictures and Reports Stock Video Footage and DVDs for sale
Season 2007-2008 Tropical Cyclone TROP-DEPRESSION-02 Track Map
Season 2007-2008 Summaries (Operational Data): [AU] [SIO] [SPAC] [SH]
<<- Previous TC | 2007-2008 Season | Next TC ->>

click for intensity scale information  Lat/long Grid: Show Hide

 Date Labels: Show Hide

Operational Tropical Cyclone Data

Name: TROP-DEPRESSION-02
Number: 08PC

10 Dec 2007 22:00 UTC to 16 Dec 2007 06:00 UTC

    date/time    lat    long     hPa   cat  kts
2007-12-10 22   13.0   164.0W                25          
2007-12-11 04   12.0   166.0W   1002         30          
2007-12-11 06   14.8   165.8W   1000         30          
2007-12-11 12   15.4   164.4W   1000         30          
2007-12-11 18   15.5   164.3W   1000         30          
2007-12-12 00   15.4   164.5W   1000         30          
2007-12-12 06   15.7   164.7W   1000         30          
2007-12-12 12   16.1   164.1W   1000         30          
2007-12-12 18   16.2   164.0W   1000         30          
2007-12-13 00   17.1   163.1W   1000         30          
2007-12-13 06   17.1   163.0W   1000         30          
2007-12-13 12   18.9   161.7W   1000         30          
2007-12-13 18   20.3   160.7W   1000         30          
2007-12-14 00   20.6   160.5W   1000         30          
2007-12-14 06   21.2   160.0W   1003         30          
2007-12-14 12   21.5   159.4W   1003         30          
2007-12-14 18   22.0   157.5W   1005         30          
2007-12-15 06   22.0   156.0W   1008         25          
2007-12-15 18   21.0   154.0W   1014         20          
2007-12-16 06   25.0   150.0W   1014         20          
Winds are 10-min average.

Tropical cyclone tracks developed by Michael Bath using operational warnings and advisories and Google Maps.


[Australian Severe Weather index] [Copyright Notice] [Email Contacts] [Search This Site] [Privacy Policy]
Document: tropical_cyclone_trop-depression-02.htm Updated: 2 May 2017